Time;durP1;ratioP1;P1;durP2;ratioP2;P2;SDS_P1;SDS_P2;PMS_P1;PMS_P2;Temp;Humidity;BMP_temperature;BMP_pressure;BME280_temperature;BME280_humidity;BME280_pressure;Samples;Min_cycle;Max_cycle;Signal;HPM_P1;HPM_P2
2021/01/10 00:00:35;;;;;;;121.68;59.45;;;;;;;;;;5032402;28;20060;-49
2021/01/10 00:03:01;;;;;;;140.13;67.82;;;;;;;;;;5029201;28;20051;-49
2021/01/10 00:05:31;;;;;;;118.05;58.38;;;;;;;;;;5029961;28;20059;-48
2021/01/10 00:07:58;;;;;;;132.05;64.78;;;;;;;;;;5032195;28;20029;-50
2021/01/10 00:10:24;;;;;;;120.28;57.97;;;;;;;;;;5021001;28;20030;-49
2021/01/10 00:12:50;;;;;;;121.15;60.33;;;;;;;;;;5032416;28;20477;-50
2021/01/10 00:15:18;;;;;;;115.60;57.80;;;;;;;;;;5032151;28;20044;-49
2021/01/10 00:17:46;;;;;;;117.75;58.03;;;;;;;;;;5030771;28;20389;-49
2021/01/10 00:20:12;;;;;;;117.65;57.00;;;;;;;;;;5031662;28;20032;-49
2021/01/10 00:22:38;;;;;;;118.07;57.33;;;;;;;;;;5031170;28;20079;-50
2021/01/10 00:25:06;;;;;;;131.75;65.57;;;;;;;;;;5022524;28;20034;-48
2021/01/10 00:27:32;;;;;;;99.07;48.33;;;;;;;;;;5013419;28;20036;-48
2021/01/10 00:29:58;;;;;;;98.10;47.30;;;;;;;;;;5013608;28;20061;-48
2021/01/10 00:32:24;;;;;;;127.35;63.40;;;;;;;;;;5016137;28;20021;-48
2021/01/10 00:34:50;;;;;;;97.78;47.85;;;;;;;;;;5016199;28;20088;-49
2021/01/10 00:37:18;;;;;;;99.72;50.03;;;;;;;;;;5015969;28;20061;-48
2021/01/10 00:39:44;;;;;;;114.32;56.80;;;;;;;;;;5017213;28;20036;-48
2021/01/10 00:42:12;;;;;;;100.13;50.70;;;;;;;;;;5017564;28;20113;-49
2021/01/10 00:44:38;;;;;;;101.22;50.90;;;;;;;;;;5019680;28;20029;-49
2021/01/10 00:47:04;;;;;;;92.32;46.67;;;;;;;;;;5017722;28;20104;-47
2021/01/10 00:49:31;;;;;;;98.03;45.92;;;;;;;;;;5026748;28;20382;-47
2021/01/10 00:51:57;;;;;;;114.85;53.83;;;;;;;;;;5020815;28;20033;-47
2021/01/10 00:54:23;;;;;;;115.50;54.90;;;;;;;;;;5023400;28;20065;-47
2021/01/10 00:56:49;;;;;;;105.95;52.72;;;;;;;;;;5019788;28;20037;-47
2021/01/10 00:59:15;;;;;;;99.05;49.08;;;;;;;;;;5015612;28;20621;-47
2021/01/10 01:01:42;;;;;;;95.40;46.33;;;;;;;;;;5021505;28;20029;-48
2021/01/10 01:04:08;;;;;;;98.35;48.75;;;;;;;;;;5019715;28;20030;-50
2021/01/10 01:06:34;;;;;;;89.45;44.05;;;;;;;;;;5024908;28;20022;-48
2021/01/10 01:09:00;;;;;;;90.18;42.92;;;;;;;;;;5030722;28;20119;-50
2021/01/10 01:11:30;;;;;;;94.30;46.22;;;;;;;;;;5030955;28;20370;-50
2021/01/10 01:13:56;;;;;;;107.47;52.33;;;;;;;;;;5030764;28;20086;-50
2021/01/10 01:16:22;;;;;;;96.68;46.38;;;;;;;;;;5031407;28;20030;-49
2021/01/10 01:18:48;;;;;;;112.22;53.03;;;;;;;;;;5030793;28;20088;-49
2021/01/10 01:21:15;;;;;;;84.60;42.95;;;;;;;;;;5031053;28;20078;-49
2021/01/10 01:23:41;;;;;;;92.93;43.83;;;;;;;;;;5031081;28;20425;-50
2021/01/10 01:26:07;;;;;;;101.88;47.92;;;;;;;;;;5030984;28;20126;-49
2021/01/10 01:28:33;;;;;;;90.45;45.75;;;;;;;;;;5030910;28;20053;-50
2021/01/10 01:30:59;;;;;;;92.13;44.75;;;;;;;;;;5037717;28;20029;-49
2021/01/10 01:33:25;;;;;;;88.57;43.38;;;;;;;;;;5031099;28;20030;-49
2021/01/10 01:35:51;;;;;;;101.43;49.80;;;;;;;;;;5034241;28;20034;-49
2021/01/10 01:38:17;;;;;;;88.72;44.78;;;;;;;;;;5033391;28;20115;-50
2021/01/10 01:40:43;;;;;;;84.40;42.45;;;;;;;;;;5034794;28;20026;-49
2021/01/10 01:43:09;;;;;;;99.10;46.05;;;;;;;;;;5034273;28;20025;-48
2021/01/10 01:45:35;;;;;;;79.15;40.72;;;;;;;;;;5034640;28;20057;-50
2021/01/10 01:48:04;;;;;;;78.60;39.22;;;;;;;;;;5034439;28;20033;-49
2021/01/10 01:50:30;;;;;;;92.13;44.97;;;;;;;;;;5034615;28;20033;-50
2021/01/10 01:52:56;;;;;;;110.95;53.25;;;;;;;;;;5033043;28;20017;-49
2021/01/10 01:55:22;;;;;;;90.60;44.83;;;;;;;;;;5034165;28;20026;-48
2021/01/10 01:57:48;;;;;;;79.50;41.53;;;;;;;;;;5034373;28;20389;-49
2021/01/10 02:00:15;;;;;;;78.95;41.70;;;;;;;;;;5034165;28;20033;-48
2021/01/10 02:02:42;;;;;;;76.07;38.78;;;;;;;;;;5040827;28;20037;-48
2021/01/10 02:05:10;;;;;;;76.00;38.95;;;;;;;;;;5042228;28;20030;-49
2021/01/10 02:07:51;;;;;;;65.53;35.75;;;;;;;;;;5034039;28;20086;-49
2021/01/10 02:10:18;;;;;;;72.30;37.97;;;;;;;;;;5034094;28;20537;-49
2021/01/10 02:12:51;;;;;;;74.15;39.65;;;;;;;;;;5032567;28;20096;-49
2021/01/10 02:15:20;;;;;;;125.57;57.80;;;;;;;;;;5034212;28;20405;-49
2021/01/10 02:17:47;;;;;;;77.25;40.63;;;;;;;;;;5034115;28;20059;-49
2021/01/10 02:20:16;;;;;;;92.10;44.67;;;;;;;;;;5034068;28;20033;-50
2021/01/10 02:22:52;;;;;;;85.22;43.20;;;;;;;;;;5034320;28;20079;-49
2021/01/10 02:25:18;;;;;;;98.22;45.33;;;;;;;;;;5029722;28;20389;-49
2021/01/10 02:27:45;;;;;;;95.18;45.13;;;;;;;;;;5033743;28;20123;-49
2021/01/10 02:30:12;;;;;;;82.43;42.00;;;;;;;;;;5033928;28;20760;-49
2021/01/10 02:32:40;;;;;;;80.80;40.92;;;;;;;;;;5033993;28;20481;-49
2021/01/10 02:35:08;;;;;;;92.10;44.88;;;;;;;;;;5033904;28;20029;-49
2021/01/10 02:37:52;;;;;;;82.43;41.42;;;;;;;;;;5037772;28;20079;-49
2021/01/10 02:40:32;;;;;;;94.45;43.72;;;;;;;;;;5034946;28;20067;-49
2021/01/10 02:43:08;;;;;;;88.78;42.05;;;;;;;;;;5028390;28;20025;-50
2021/01/10 02:45:35;;;;;;;88.80;42.67;;;;;;;;;;5039342;28;20021;-48
2021/01/10 02:48:01;;;;;;;113.43;48.50;;;;;;;;;;5033126;28;20064;-49
2021/01/10 02:50:29;;;;;;;100.65;48.28;;;;;;;;;;5033466;28;20091;-49
2021/01/10 02:52:55;;;;;;;144.75;56.35;;;;;;;;;;5033774;28;20084;-49
2021/01/10 02:55:21;;;;;;;150.43;57.50;;;;;;;;;;5033354;28;20108;-48
2021/01/10 02:57:56;;;;;;;239.43;79.03;;;;;;;;;;5033148;28;20061;-50
2021/01/10 03:00:23;;;;;;;156.82;58.15;;;;;;;;;;5033371;28;20370;-49
2021/01/10 03:02:50;;;;;;;139.20;55.45;;;;;;;;;;5033370;28;20025;-49
2021/01/10 03:05:16;;;;;;;119.57;51.40;;;;;;;;;;5033390;28;20048;-49
2021/01/10 03:07:44;;;;;;;95.35;44.78;;;;;;;;;;5033074;28;20033;-49
2021/01/10 03:10:11;;;;;;;105.07;47.85;;;;;;;;;;5033291;28;20048;-49
2021/01/10 03:12:37;;;;;;;102.93;47.55;;;;;;;;;;5033078;28;20044;-49
2021/01/10 03:15:04;;;;;;;87.45;43.08;;;;;;;;;;5025129;28;20124;-49
2021/01/10 03:17:36;;;;;;;87.15;41.75;;;;;;;;;;5033110;28;20068;-50
2021/01/10 03:20:03;;;;;;;101.50;43.17;;;;;;;;;;5040475;28;20147;-49
2021/01/10 03:22:30;;;;;;;143.23;51.40;;;;;;;;;;5033157;28;20072;-49
2021/01/10 03:24:56;;;;;;;207.43;67.00;;;;;;;;;;5032786;28;20576;-47
2021/01/10 03:27:22;;;;;;;93.82;42.03;;;;;;;;;;5033013;28;20036;-50
2021/01/10 03:29:48;;;;;;;248.13;83.10;;;;;;;;;;5032531;28;20088;-49
2021/01/10 03:32:14;;;;;;;131.18;55.85;;;;;;;;;;5032846;28;20029;-49
2021/01/10 03:34:40;;;;;;;149.45;66.82;;;;;;;;;;5033012;28;20409;-49
2021/01/10 03:37:07;;;;;;;178.25;75.32;;;;;;;;;;5032854;28;20032;-50
2021/01/10 03:39:33;;;;;;;85.13;43.75;;;;;;;;;;5035139;28;20036;-49
2021/01/10 03:41:59;;;;;;;81.10;41.00;;;;;;;;;;5032602;28;20049;-49
2021/01/10 03:44:25;;;;;;;80.63;40.22;;;;;;;;;;5032603;28;20033;-49
2021/01/10 03:46:52;;;;;;;72.85;38.13;;;;;;;;;;5032623;28;20083;-49
2021/01/10 03:49:18;;;;;;;76.18;38.05;;;;;;;;;;5032591;28;20034;-49
2021/01/10 03:51:45;;;;;;;81.60;41.45;;;;;;;;;;5036303;28;20032;-49
2021/01/10 03:54:11;;;;;;;71.97;37.88;;;;;;;;;;5032565;28;20029;-50
2021/01/10 03:56:37;;;;;;;77.35;40.03;;;;;;;;;;5032407;28;20029;-49
2021/01/10 03:59:03;;;;;;;77.03;39.47;;;;;;;;;;5031949;28;20032;-49
2021/01/10 04:01:29;;;;;;;78.28;39.72;;;;;;;;;;5032253;28;20037;-49
2021/01/10 04:03:55;;;;;;;111.18;52.78;;;;;;;;;;5032300;28;20033;-50
2021/01/10 04:06:21;;;;;;;102.03;50.40;;;;;;;;;;5032218;28;20029;-49
2021/01/10 04:08:47;;;;;;;88.20;46.00;;;;;;;;;;5032346;28;20079;-50
2021/01/10 04:11:13;;;;;;;86.30;45.65;;;;;;;;;;5032182;28;20458;-48
2021/01/10 04:13:40;;;;;;;84.53;45.20;;;;;;;;;;5032130;28;20025;-50
2021/01/10 04:16:06;;;;;;;80.85;44.60;;;;;;;;;;5032085;28;20029;-49
2021/01/10 04:18:32;;;;;;;81.65;41.70;;;;;;;;;;5031987;28;20053;-50
2021/01/10 04:20:58;;;;;;;79.30;43.05;;;;;;;;;;5031805;28;20100;-49
2021/01/10 04:23:24;;;;;;;81.63;42.97;;;;;;;;;;5032047;28;20493;-49
2021/01/10 04:25:50;;;;;;;86.20;45.42;;;;;;;;;;5039323;28;20401;-50
2021/01/10 04:28:17;;;;;;;81.10;42.42;;;;;;;;;;5031716;28;20054;-49
2021/01/10 04:30:43;;;;;;;79.95;42.15;;;;;;;;;;5031797;28;20068;-49
2021/01/10 04:33:09;;;;;;;85.88;43.83;;;;;;;;;;5031791;28;20026;-48
2021/01/10 04:35:35;;;;;;;86.47;43.30;;;;;;;;;;5031932;28;20025;-49
2021/01/10 04:38:01;;;;;;;89.53;45.05;;;;;;;;;;5031694;28;20099;-49
2021/01/10 04:40:27;;;;;;;87.38;45.58;;;;;;;;;;5031851;28;20097;-49
2021/01/10 04:42:54;;;;;;;80.60;42.45;;;;;;;;;;5031614;28;20040;-48
2021/01/10 04:45:21;;;;;;;80.05;42.42;;;;;;;;;;5031790;28;20021;-50
2021/01/10 04:47:47;;;;;;;79.47;41.97;;;;;;;;;;5031798;28;20083;-49
2021/01/10 04:50:13;;;;;;;83.47;42.83;;;;;;;;;;5031339;28;20546;-49
2021/01/10 04:52:39;;;;;;;79.03;41.95;;;;;;;;;;5031673;28;20068;-49
2021/01/10 04:55:06;;;;;;;91.68;48.92;;;;;;;;;;5031441;28;20462;-49
2021/01/10 04:57:33;;;;;;;83.13;45.42;;;;;;;;;;5035901;28;20039;-49
2021/01/10 05:00:00;;;;;;;88.65;47.90;;;;;;;;;;5034408;28;20040;-48
2021/01/10 05:02:26;;;;;;;91.45;47.45;;;;;;;;;;5029163;28;20033;-49
2021/01/10 05:04:55;;;;;;;93.47;49.38;;;;;;;;;;5031459;28;20028;-49
2021/01/10 05:07:21;;;;;;;92.25;48.13;;;;;;;;;;5037502;28;20033;-49
2021/01/10 05:09:47;;;;;;;90.70;46.47;;;;;;;;;;5032937;28;20032;-50
2021/01/10 05:12:14;;;;;;;85.53;44.00;;;;;;;;;;5035030;28;20496;-49
2021/01/10 05:14:40;;;;;;;81.68;44.53;;;;;;;;;;5039405;28;20037;-50
2021/01/10 05:17:15;;;;;;;87.25;45.97;;;;;;;;;;5038574;28;20359;-48
2021/01/10 05:19:45;;;;;;;92.47;49.35;;;;;;;;;;5034821;28;20072;-49
2021/01/10 05:22:11;;;;;;;106.80;53.95;;;;;;;;;;5035108;28;20038;-49
2021/01/10 05:24:37;;;;;;;101.88;55.10;;;;;;;;;;5034893;28;20029;-49
2021/01/10 05:27:03;;;;;;;96.82;51.30;;;;;;;;;;5035072;28;20057;-50
2021/01/10 05:29:30;;;;;;;97.88;52.03;;;;;;;;;;5034629;28;20049;-49
2021/01/10 05:31:56;;;;;;;95.38;50.17;;;;;;;;;;5040484;28;20108;-49
2021/01/10 05:34:24;;;;;;;93.53;50.72;;;;;;;;;;5036986;28;20105;-49
2021/01/10 05:36:50;;;;;;;99.03;52.33;;;;;;;;;;5034730;28;20469;-49
2021/01/10 05:39:20;;;;;;;95.60;50.53;;;;;;;;;;5035085;28;20037;-48
2021/01/10 05:41:50;;;;;;;96.63;50.53;;;;;;;;;;5034264;28;20056;-49
2021/01/10 05:44:16;;;;;;;92.95;48.58;;;;;;;;;;5034925;28;20095;-49
2021/01/10 05:46:42;;;;;;;97.13;50.65;;;;;;;;;;5034943;28;20029;-49
2021/01/10 05:49:17;;;;;;;94.95;50.63;;;;;;;;;;5041010;28;20048;-49
2021/01/10 05:51:43;;;;;;;94.07;49.90;;;;;;;;;;5034975;28;20029;-49
2021/01/10 05:54:09;;;;;;;99.45;51.97;;;;;;;;;;5034595;28;20410;-49
2021/01/10 05:56:36;;;;;;;93.95;50.78;;;;;;;;;;5034468;28;20413;-48
2021/01/10 05:59:02;;;;;;;93.95;48.30;;;;;;;;;;5034226;28;20116;-49
2021/01/10 06:01:28;;;;;;;85.70;46.35;;;;;;;;;;5034579;28;20033;-48
2021/01/10 06:03:54;;;;;;;95.50;49.83;;;;;;;;;;5034360;28;20059;-49
2021/01/10 06:06:20;;;;;;;95.55;51.38;;;;;;;;;;5041303;28;20025;-50
2021/01/10 06:08:47;;;;;;;104.05;55.13;;;;;;;;;;5039953;28;20065;-50
2021/01/10 06:11:16;;;;;;;102.43;53.97;;;;;;;;;;5034455;28;20064;-49
2021/01/10 06:13:47;;;;;;;112.68;59.10;;;;;;;;;;5034261;28;20042;-50
2021/01/10 06:16:14;;;;;;;129.50;66.77;;;;;;;;;;5034422;28;20032;-49
2021/01/10 06:18:42;;;;;;;107.40;56.47;;;;;;;;;;5034135;28;20499;-49
2021/01/10 06:21:14;;;;;;;102.75;53.97;;;;;;;;;;5034128;28;20096;-49
2021/01/10 06:23:40;;;;;;;103.30;53.67;;;;;;;;;;5034125;28;20091;-49
2021/01/10 06:26:06;;;;;;;95.85;50.30;;;;;;;;;;5032900;28;20103;-50
2021/01/10 06:28:33;;;;;;;92.80;49.78;;;;;;;;;;5033533;28;20045;-49
2021/01/10 06:31:00;;;;;;;90.32;47.72;;;;;;;;;;5033983;28;20029;-50
2021/01/10 06:33:32;;;;;;;95.72;51.40;;;;;;;;;;5039362;28;20083;-49
2021/01/10 06:36:06;;;;;;;93.07;50.00;;;;;;;;;;5032583;28;20038;-49
2021/01/10 06:38:32;;;;;;;99.55;54.60;;;;;;;;;;5033821;28;20068;-49
2021/01/10 06:41:15;;;;;;;168.98;83.38;;;;;;;;;;5033596;28;20028;-49
2021/01/10 06:43:44;;;;;;;290.45;127.68;;;;;;;;;;5029824;28;20489;-50
2021/01/10 06:46:11;;;;;;;255.55;116.85;;;;;;;;;;5041434;28;20037;-49
2021/01/10 06:48:37;;;;;;;108.53;58.47;;;;;;;;;;5032250;28;20421;-49
2021/01/10 06:51:03;;;;;;;107.22;59.55;;;;;;;;;;5041270;28;20032;-49
2021/01/10 06:53:30;;;;;;;112.32;59.15;;;;;;;;;;5033383;28;20395;-48
2021/01/10 06:55:57;;;;;;;118.50;62.63;;;;;;;;;;5033312;28;20021;-49
2021/01/10 06:58:23;;;;;;;119.55;64.70;;;;;;;;;;5033386;28;20029;-49
2021/01/10 07:00:55;;;;;;;112.22;61.30;;;;;;;;;;5033448;28;20022;-49
2021/01/10 07:03:22;;;;;;;132.30;72.75;;;;;;;;;;5030456;28;20032;-49
2021/01/10 07:05:58;;;;;;;152.43;85.45;;;;;;;;;;5030433;28;20029;-49
2021/01/10 07:08:30;;;;;;;167.80;82.47;;;;;;;;;;5028857;28;20017;-49
2021/01/10 07:10:57;;;;;;;228.13;111.43;;;;;;;;;;5029752;28;20022;-48
2021/01/10 07:13:27;;;;;;;201.55;100.53;;;;;;;;;;5030843;28;20024;-49
2021/01/10 07:16:32;;;;;;;115.53;62.60;;;;;;;;;;5032666;28;20493;-49
2021/01/10 07:18:59;;;;;;;110.63;60.03;;;;;;;;;;4954089;28;20039;-48
2021/01/10 07:21:37;;;;;;;106.95;60.72;;;;;;;;;;4967272;28;20027;-50
2021/01/10 07:24:21;;;;;;;110.53;59.72;;;;;;;;;;4962885;28;20114;-49
2021/01/10 07:26:51;;;;;;;103.70;56.35;;;;;;;;;;4967766;28;20487;-49
2021/01/10 07:29:38;;;;;;;141.38;76.80;;;;;;;;;;4961731;28;20086;-50
2021/01/10 07:32:08;;;;;;;133.88;76.30;;;;;;;;;;4961535;28;20062;-49
2021/01/10 07:34:35;;;;;;;123.82;68.38;;;;;;;;;;4954532;28;20035;-49
2021/01/10 07:37:02;;;;;;;140.13;78.68;;;;;;;;;;4954891;28;20583;-50
2021/01/10 07:39:35;;;;;;;113.03;62.05;;;;;;;;;;4956416;28;20045;-49
2021/01/10 07:42:13;;;;;;;116.65;63.15;;;;;;;;;;4954354;28;20383;-49
2021/01/10 07:44:58;;;;;;;117.43;63.20;;;;;;;;;;4954082;28;20539;-49
2021/01/10 07:47:30;;;;;;;137.25;72.53;;;;;;;;;;4955682;28;20102;-50
2021/01/10 07:49:57;;;;;;;137.10;72.43;;;;;;;;;;4999478;28;20044;-49
2021/01/10 07:52:42;;;;;;;159.68;84.85;;;;;;;;;;5031771;28;20366;-49
2021/01/10 07:55:20;;;;;;;139.77;77.68;;;;;;;;;;5031664;28;20061;-49
2021/01/10 07:57:46;;;;;;;147.73;82.93;;;;;;;;;;5030162;28;20037;-48
2021/01/10 08:00:13;;;;;;;158.77;88.30;;;;;;;;;;5033672;28;20091;-49
2021/01/10 08:03:11;;;;;;;149.20;83.63;;;;;;;;;;5030441;28;20029;-49
2021/01/10 08:05:41;;;;;;;161.82;84.95;;;;;;;;;;4986739;28;20077;-51
2021/01/10 08:08:08;;;;;;;227.32;119.68;;;;;;;;;;4982988;28;20429;-50
2021/01/10 08:10:46;;;;;;;189.25;100.93;;;;;;;;;;4982770;28;20389;-51
2021/01/10 08:13:28;;;;;;;145.35;82.05;;;;;;;;;;4982162;28;20068;-49
2021/01/10 08:15:55;;;;;;;214.00;112.25;;;;;;;;;;4982140;28;20034;-52
2021/01/10 08:18:21;;;;;;;139.40;77.18;;;;;;;;;;4975065;28;20041;-50
2021/01/10 08:20:53;;;;;;;135.18;73.30;;;;;;;;;;4980886;28;20026;-50
2021/01/10 08:23:19;;;;;;;134.55;76.47;;;;;;;;;;4978688;28;20057;-48
2021/01/10 08:25:46;;;;;;;140.70;76.60;;;;;;;;;;4975312;28;20034;-50
2021/01/10 08:28:16;;;;;;;160.82;89.10;;;;;;;;;;4982181;28;20045;-49
2021/01/10 08:30:42;;;;;;;152.95;85.65;;;;;;;;;;4975937;28;20057;-49
2021/01/10 08:33:08;;;;;;;161.20;91.85;;;;;;;;;;4987174;28;20038;-50
2021/01/10 08:35:34;;;;;;;170.63;93.32;;;;;;;;;;4971970;28;20133;-50
2021/01/10 08:38:00;;;;;;;208.18;108.90;;;;;;;;;;4977699;28;20038;-50
2021/01/10 08:40:26;;;;;;;211.93;111.10;;;;;;;;;;4985132;28;20697;-48
2021/01/10 08:43:03;;;;;;;164.23;95.28;;;;;;;;;;5029471;28;20029;-50
2021/01/10 08:45:29;;;;;;;150.13;89.85;;;;;;;;;;5034484;28;20029;-49
2021/01/10 08:47:55;;;;;;;133.40;77.40;;;;;;;;;;5035918;28;20025;-50
2021/01/10 08:50:22;;;;;;;124.22;71.50;;;;;;;;;;5043113;28;20061;-51
2021/01/10 08:52:52;;;;;;;126.05;72.47;;;;;;;;;;5039355;28;20040;-48
2021/01/10 08:55:28;;;;;;;129.05;72.43;;;;;;;;;;5035215;28;20046;-49
2021/01/10 08:57:54;;;;;;;136.15;77.93;;;;;;;;;;5035278;28;20030;-49
2021/01/10 09:00:20;;;;;;;137.30;78.57;;;;;;;;;;5035516;28;20397;-50
2021/01/10 09:02:46;;;;;;;113.75;65.18;;;;;;;;;;5037799;28;20017;-49
2021/01/10 09:05:22;;;;;;;116.20;67.30;;;;;;;;;;5035623;28;20440;-49
2021/01/10 09:07:49;;;;;;;110.72;64.25;;;;;;;;;;5034475;28;20037;-48
2021/01/10 09:10:17;;;;;;;123.32;66.90;;;;;;;;;;5035433;28;20022;-49
2021/01/10 09:12:46;;;;;;;138.82;78.35;;;;;;;;;;5043283;28;20044;-49
2021/01/10 09:15:12;;;;;;;130.10;74.25;;;;;;;;;;5041891;28;20032;-49
2021/01/10 09:17:42;;;;;;;125.82;72.07;;;;;;;;;;5035511;28;20100;-49
2021/01/10 09:20:11;;;;;;;98.78;58.47;;;;;;;;;;5035153;28;20066;-50
2021/01/10 09:22:37;;;;;;;111.70;63.47;;;;;;;;;;5037259;28;20162;-50
2021/01/10 09:25:10;;;;;;;145.75;77.07;;;;;;;;;;5035036;28;20112;-50
2021/01/10 09:27:37;;;;;;;138.82;75.10;;;;;;;;;;5035285;28;20109;-50
2021/01/10 09:30:05;;;;;;;115.65;66.18;;;;;;;;;;5035179;28;20060;-50
2021/01/10 09:32:31;;;;;;;126.63;72.07;;;;;;;;;;5035269;28;20029;-50
2021/01/10 09:34:57;;;;;;;142.30;81.00;;;;;;;;;;5035283;28;20017;-50
2021/01/10 09:37:28;;;;;;;296.35;163.13;;;;;;;;;;5034944;28;20062;-50
2021/01/10 09:39:54;;;;;;;156.27;89.40;;;;;;;;;;5035028;28;20030;-50
2021/01/10 09:42:20;;;;;;;168.25;95.38;;;;;;;;;;5035142;28;20037;-50
2021/01/10 09:44:54;;;;;;;156.75;89.25;;;;;;;;;;5035063;28;20492;-50
2021/01/10 09:47:32;;;;;;;136.45;76.10;;;;;;;;;;5035168;28;20026;-50
2021/01/10 09:49:59;;;;;;;124.50;70.80;;;;;;;;;;5034927;28;20032;-50
2021/01/10 09:52:25;;;;;;;140.48;77.63;;;;;;;;;;5034971;28;20037;-49
2021/01/10 09:54:57;;;;;;;139.85;78.20;;;;;;;;;;5034455;28;20611;-50
2021/01/10 09:57:23;;;;;;;;;;;;;;;;;;5035673;28;20124;-49
2021/01/10 09:59:54;;;;;;;178.18;99.85;;;;;;;;;;5031964;28;20028;-50
2021/01/10 10:02:37;;;;;;;169.75;95.50;;;;;;;;;;5034857;28;20021;-50
2021/01/10 10:05:19;;;;;;;155.80;86.13;;;;;;;;;;5033031;28;20020;-50
2021/01/10 10:07:52;;;;;;;129.45;72.53;;;;;;;;;;5034701;28;20022;-50
2021/01/10 10:10:21;;;;;;;122.50;69.95;;;;;;;;;;5034746;28;20104;-50
2021/01/10 10:12:53;;;;;;;157.63;93.45;;;;;;;;;;5034456;28;20536;-50
2021/01/10 10:15:19;;;;;;;161.68;96.35;;;;;;;;;;5034485;28;20496;-50
2021/01/10 10:17:45;;;;;;;140.55;81.45;;;;;;;;;;5034447;28;20071;-50
2021/01/10 10:20:11;;;;;;;156.95;91.47;;;;;;;;;;5034417;28;20112;-50
2021/01/10 10:22:38;;;;;;;182.55;102.63;;;;;;;;;;5034308;28;20021;-50
2021/01/10 10:25:08;;;;;;;165.30;92.70;;;;;;;;;;5034388;28;20026;-50
2021/01/10 10:27:35;;;;;;;157.45;89.82;;;;;;;;;;5033873;28;20077;-50
2021/01/10 10:30:02;;;;;;;166.50;96.45;;;;;;;;;;5034316;28;20108;-50
2021/01/10 10:32:28;;;;;;;153.25;89.90;;;;;;;;;;5034082;28;20099;-50
2021/01/10 10:34:54;;;;;;;183.10;106.70;;;;;;;;;;5034128;28;20148;-50
2021/01/10 10:37:21;;;;;;;177.15;102.63;;;;;;;;;;5034278;28;20076;-50
2021/01/10 10:39:47;;;;;;;162.20;93.32;;;;;;;;;;5019867;28;20033;-47
2021/01/10 10:42:16;;;;;;;139.82;81.47;;;;;;;;;;5033621;28;20060;-49
2021/01/10 10:44:43;;;;;;;183.68;107.63;;;;;;;;;;5033011;28;20029;-48
2021/01/10 10:47:16;;;;;;;183.52;104.75;;;;;;;;;;5033889;28;20075;-49
2021/01/10 10:49:42;;;;;;;155.98;95.80;;;;;;;;;;5022059;28;20112;-49
2021/01/10 10:52:12;;;;;;;149.27;90.47;;;;;;;;;;5027888;28;20448;-48
2021/01/10 10:54:38;;;;;;;171.20;95.68;;;;;;;;;;5029042;28;20018;-49
2021/01/10 10:57:06;;;;;;;175.07;93.25;;;;;;;;;;5016543;28;20028;-48
2021/01/10 10:59:32;;;;;;;177.85;108.30;;;;;;;;;;5015554;28;20406;-53
2021/01/10 11:01:58;;;;;;;194.93;116.22;;;;;;;;;;5015998;28;20018;-49
2021/01/10 11:04:24;;;;;;;150.88;86.65;;;;;;;;;;5017386;28;20030;-50
2021/01/10 11:06:50;;;;;;;144.45;81.82;;;;;;;;;;5016921;28;20381;-49
2021/01/10 11:09:16;;;;;;;211.90;124.22;;;;;;;;;;5015311;28;20030;-49
2021/01/10 11:11:46;;;;;;;160.75;93.90;;;;;;;;;;5019920;28;20022;-49
2021/01/10 11:14:15;;;;;;;161.18;96.40;;;;;;;;;;5021885;28;20060;-50
2021/01/10 11:16:43;;;;;;;205.63;113.90;;;;;;;;;;5020794;28;20034;-54
2021/01/10 11:19:09;;;;;;;139.27;78.47;;;;;;;;;;5022786;28;20116;-50
2021/01/10 11:21:43;;;;;;;134.35;80.07;;;;;;;;;;5020228;28;20124;-49
2021/01/10 11:24:10;;;;;;;133.20;75.80;;;;;;;;;;5022359;28;20087;-50
2021/01/10 11:26:37;;;;;;;173.45;94.28;;;;;;;;;;5018775;28;20393;-51
2021/01/10 11:29:06;;;;;;;139.73;75.65;;;;;;;;;;5024437;28;20718;-50
2021/01/10 11:31:33;;;;;;;157.77;85.80;;;;;;;;;;5028733;28;20083;-50
2021/01/10 11:34:02;;;;;;;144.77;84.90;;;;;;;;;;5026418;28;20033;-49
2021/01/10 11:36:28;;;;;;;154.65;88.30;;;;;;;;;;5042843;28;20079;-52
2021/01/10 11:38:55;;;;;;;141.98;82.40;;;;;;;;;;5030864;28;20112;-51
2021/01/10 11:41:21;;;;;;;171.75;94.75;;;;;;;;;;5027798;28;20405;-48
2021/01/10 11:43:48;;;;;;;138.10;76.63;;;;;;;;;;5023791;28;20101;-51
2021/01/10 11:46:14;;;;;;;156.63;84.95;;;;;;;;;;5019865;28;20108;-50
2021/01/10 11:48:41;;;;;;;160.52;86.78;;;;;;;;;;5020306;28;20065;-50
2021/01/10 11:51:07;;;;;;;196.35;110.10;;;;;;;;;;5031957;28;20381;-49
2021/01/10 11:53:33;;;;;;;230.48;131.95;;;;;;;;;;5033596;28;20385;-50
2021/01/10 11:56:00;;;;;;;195.18;108.72;;;;;;;;;;5033027;28;20026;-51
2021/01/10 11:58:26;;;;;;;172.10;99.63;;;;;;;;;;5031572;28;20045;-49
2021/01/10 12:00:53;;;;;;;154.82;86.32;;;;;;;;;;5032216;28;20037;-49
2021/01/10 12:03:20;;;;;;;169.07;92.43;;;;;;;;;;5031050;28;20030;-51
2021/01/10 12:05:46;;;;;;;219.00;118.80;;;;;;;;;;5027837;28;20045;-50
2021/01/10 12:08:12;;;;;;;169.73;95.40;;;;;;;;;;5024656;28;20067;-48
2021/01/10 12:10:38;;;;;;;224.02;117.13;;;;;;;;;;5030273;28;20072;-49
2021/01/10 12:13:04;;;;;;;218.95;114.47;;;;;;;;;;5027764;28;20095;-50
2021/01/10 12:15:33;;;;;;;156.07;82.97;;;;;;;;;;5031347;28;20021;-50
2021/01/10 12:17:59;;;;;;;129.05;69.97;;;;;;;;;;5032753;28;20042;-50
2021/01/10 12:20:25;;;;;;;224.18;122.60;;;;;;;;;;5032370;28;20067;-49
2021/01/10 12:22:51;;;;;;;222.95;121.63;;;;;;;;;;5026212;28;20036;-48
2021/01/10 12:25:17;;;;;;;189.82;103.22;;;;;;;;;;5031355;28;20100;-48
2021/01/10 12:27:43;;;;;;;151.73;78.72;;;;;;;;;;5038451;28;20041;-48
2021/01/10 12:30:09;;;;;;;151.30;81.78;;;;;;;;;;5036529;28;20116;-50
2021/01/10 12:32:38;;;;;;;175.43;96.13;;;;;;;;;;5030945;28;20033;-49
2021/01/10 12:35:08;;;;;;;216.07;126.90;;;;;;;;;;5023333;28;20021;-48
2021/01/10 12:37:35;;;;;;;187.27;112.45;;;;;;;;;;5018589;28;20026;-49
2021/01/10 12:40:01;;;;;;;232.10;127.30;;;;;;;;;;5013807;28;20045;-51
2021/01/10 12:42:27;;;;;;;326.23;188.68;;;;;;;;;;5013497;28;20048;-50
2021/01/10 12:44:53;;;;;;;219.02;122.07;;;;;;;;;;5012513;28;20429;-49
2021/01/10 12:47:19;;;;;;;249.77;128.27;;;;;;;;;;5017020;28;20092;-48
2021/01/10 12:49:45;;;;;;;228.23;114.47;;;;;;;;;;5019187;28;20029;-48
2021/01/10 12:52:11;;;;;;;153.30;85.30;;;;;;;;;;5031777;28;20044;-51
2021/01/10 12:54:37;;;;;;;120.25;66.03;;;;;;;;;;5031470;28;20045;-49
2021/01/10 12:57:04;;;;;;;102.90;56.60;;;;;;;;;;5033538;28;20030;-49
2021/01/10 12:59:30;;;;;;;98.10;55.60;;;;;;;;;;5031008;28;20040;-50
2021/01/10 13:01:56;;;;;;;118.60;67.70;;;;;;;;;;5031010;28;20033;-50
2021/01/10 13:04:22;;;;;;;112.95;62.85;;;;;;;;;;5030156;28;20113;-51
2021/01/10 13:06:48;;;;;;;96.68;55.55;;;;;;;;;;5031558;28;20032;-50
2021/01/10 13:09:14;;;;;;;90.35;51.72;;;;;;;;;;5031383;28;20029;-51
2021/01/10 13:11:40;;;;;;;103.28;56.80;;;;;;;;;;5031089;28;20112;-50
2021/01/10 13:14:07;;;;;;;115.05;63.67;;;;;;;;;;5028100;28;20449;-50
2021/01/10 13:16:33;;;;;;;120.65;67.03;;;;;;;;;;5038768;28;20692;-49
2021/01/10 13:19:02;;;;;;;127.07;70.28;;;;;;;;;;5027021;28;20045;-50
2021/01/10 13:21:29;;;;;;;108.65;59.75;;;;;;;;;;5019976;28;20022;-51
2021/01/10 13:23:55;;;;;;;126.85;71.32;;;;;;;;;;5024761;28;20018;-50
2021/01/10 13:26:21;;;;;;;187.52;107.97;;;;;;;;;;5049015;28;20055;-49
2021/01/10 13:28:47;;;;;;;175.85;98.10;;;;;;;;;;5030663;28;20084;-49
2021/01/10 13:31:13;;;;;;;215.10;120.57;;;;;;;;;;5019634;28;20044;-50
2021/01/10 13:33:40;;;;;;;221.73;119.45;;;;;;;;;;5034902;28;20482;-49
2021/01/10 13:36:07;;;;;;;193.30;104.60;;;;;;;;;;5033456;28;20053;-50
2021/01/10 13:38:33;;;;;;;211.40;113.18;;;;;;;;;;5026768;28;20516;-49
2021/01/10 13:40:59;;;;;;;174.43;99.18;;;;;;;;;;5034953;28;20033;-51
2021/01/10 13:43:25;;;;;;;163.40;92.95;;;;;;;;;;5041462;28;20025;-51
2021/01/10 13:45:51;;;;;;;188.43;106.63;;;;;;;;;;5034597;28;20367;-50
2021/01/10 13:48:18;;;;;;;171.38;97.68;;;;;;;;;;5040706;28;20107;-50
2021/01/10 13:50:47;;;;;;;160.52;92.50;;;;;;;;;;5030724;28;20025;-51
2021/01/10 13:53:14;;;;;;;176.10;105.38;;;;;;;;;;5034692;28;20127;-50
2021/01/10 13:55:40;;;;;;;174.88;98.13;;;;;;;;;;5025634;28;20108;-49
2021/01/10 13:58:06;;;;;;;160.48;94.38;;;;;;;;;;5020802;28;20450;-50
2021/01/10 14:00:32;;;;;;;211.15;123.90;;;;;;;;;;5032188;28;20489;-50
2021/01/10 14:02:58;;;;;;;215.40;124.60;;;;;;;;;;5034433;28;20108;-50
2021/01/10 14:05:24;;;;;;;204.95;113.57;;;;;;;;;;5034797;28;20025;-50
2021/01/10 14:07:50;;;;;;;187.18;105.50;;;;;;;;;;5034567;28;20022;-50
2021/01/10 14:10:16;;;;;;;202.43;110.80;;;;;;;;;;5030867;28;20033;-50